Atlas — WDG6819 — position and weather

sailwx.info

Track history (hours):
 
Tides and Currents Weather Stations Pressure Air Temp Water Temp Dewpoint Dewpoint Depression Visibility Wind Speed Wind Dir Waves Ship Positions

Atlas

Owner: Seabulk Towing, Inc., Fort Lauderdale, FL. More information available from US FCC via Universal Licensing System and Coast Guard Vessel Documentation Center.

Last reported at 2018-May-15 14:20 UTC. Time now 2018-Aug-14 23:41 UTC.
Position N 27°55' W 082°27'.
Warning: this ship's position is months out of date.

Length 30 m; draft 6 m.

Type: Tug. MMSI: 367560990.

Date/timePositionNaut miles runAvg speedWind from/ knotsBaromVisibWave heightAir tempDewpointWater temp
2018-May-15 14:20N 27°55' W 082°27'0 0.0
2018-May-15 14:00N 27°55' W 082°27'0 0.0
2018-May-15 13:30N 27°55' W 082°27'0 0.0
2018-May-15 13:00N 27°55' W 082°27'0 0.0
2018-May-15 12:30N 27°55' W 082°27'0 0.0
2018-May-15 12:00N 27°55' W 082°27'0 0.0
2018-May-15 11:30N 27°55' W 082°27'0 0.0
2018-May-15 11:00N 27°55' W 082°27'0 0.0
2018-May-15 10:31N 27°55' W 082°27'0 0.0
2018-May-15 10:00N 27°55' W 082°27'0 0.0
2018-May-15 09:30N 27°55' W 082°27'0 0.0
2018-May-15 09:00N 27°55' W 082°27'0 0.0
2018-May-15 08:31N 27°55' W 082°27'0 0.0
2018-May-15 08:01N 27°55' W 082°27'0 0.0
2018-May-15 07:30N 27°55' W 082°27'0 0.0
2018-May-15 07:00N 27°55' W 082°27'0 0.0
2018-May-15 06:30N 27°55' W 082°27'0 0.0
2018-May-15 06:00N 27°55' W 082°27'0 0.0
2018-May-15 05:30N 27°55' W 082°27'0 0.0
2018-May-15 05:00N 27°55' W 082°27'0 0.0
2018-May-15 04:30N 27°55' W 082°27'0 0.0
2018-May-15 04:00N 27°55' W 082°27'0 0.0
2018-May-15 03:30N 27°55' W 082°27'0 0.0
2018-May-15 03:00N 27°55' W 082°27'0 0.0
2018-May-15 02:30N 27°55' W 082°27'0 0.0
2018-May-15 02:00N 27°55' W 082°27'0 0.0
2018-May-15 01:30N 27°55' W 082°27'0 0.0
2018-May-15 01:00N 27°55' W 082°27'0 0.0
2018-May-15 00:30N 27°55' W 082°27'0 0.0
2018-May-15 00:00N 27°55' W 082°27'0 0.0
2018-May-14 23:31N 27°55' W 082°27'0 0.0
2018-May-14 23:00N 27°55' W 082°27'0 0.0
2018-May-14 22:30N 27°55' W 082°27'0 0.0
2018-May-14 22:00N 27°55' W 082°27'0 0.0
2018-May-14 21:30N 27°55' W 082°27'0 0.0
2018-May-14 21:00N 27°55' W 082°27'0 0.0
2018-May-14 20:28N 27°55' W 082°27'0 0.0
2018-May-14 20:00N 27°55' W 082°27'0 0.0
2018-May-14 19:30N 27°55' W 082°27'0 0.0
2018-May-14 19:00N 27°55' W 082°27'0 0.0
2018-May-14 18:30N 27°55' W 082°27'0 0.0
2018-May-14 18:00N 27°55' W 082°27'0 0.0
2018-May-14 17:31N 27°55' W 082°27'0 0.0
2018-May-14 16:59N 27°55' W 082°27'0 0.0
2018-May-14 16:31N 27°55' W 082°27'0 0.0
2018-May-14 15:59N 27°55' W 082°27'0 0.0
2018-May-14 15:31N 27°55' W 082°27'0 0.0
2018-May-14 15:00N 27°55' W 082°27'0 0.0
2018-May-14 14:29N 27°55' W 082°27'1 3.1
2018-May-14 14:00N 27°54' W 082°26'3 6.3
2018-May-14 13:30N 27°51' W 082°25'1 2.8
2018-May-14 13:00N 27°51' W 082°23'0 0.3
2018-May-14 12:19N 27°51' W 082°24'0 1.3
2018-May-14 12:00N 27°51' W 082°24'2 3.3
2018-May-14 11:30N 27°51' W 082°26'2 4.5
2018-May-14 11:01N 27°49' W 082°27'2 0.3
2018-May-14 03:03N 27°48' W 082°24'0 1.4
2018-May-14 03:00N 27°48' W 082°24'0 0.2
2018-May-14 02:30N 27°48' W 082°25'1 3.0
2018-May-14 02:00N 27°49' W 082°26'3 6.7
2018-May-14 01:31N 27°48' W 082°30'510.1
2018-May-14 00:59N 27°43' W 082°32'4 0.4
2018-May-13 15:26N 27°47' W 082°31'410.0
2018-May-13 15:00N 27°49' W 082°27'5 9.9
2018-May-13 14:30N 27°54' W 082°26'2 3.2
2018-May-13 14:00N 27°55' W 082°27'0 0.0
2018-May-13 13:30N 27°55' W 082°27'0 0.0
2018-May-13 13:00N 27°55' W 082°27'0 0.0
2018-May-13 12:30N 27°55' W 082°27'0 0.0
2018-May-13 12:00N 27°55' W 082°27'0 0.0
2018-May-13 11:31N 27°55' W 082°27'0 0.0
2018-May-13 11:01N 27°55' W 082°27'0 0.0
2018-May-13 10:29N 27°55' W 082°27'0 0.0
2018-May-13 10:00N 27°55' W 082°27'0 0.0
2018-May-13 09:30N 27°55' W 082°27'0 0.0
2018-May-13 09:00N 27°55' W 082°27'0 0.0
2018-May-13 08:30N 27°55' W 082°27'0 0.0
2018-May-13 08:00N 27°55' W 082°27'0 0.0
2018-May-13 07:30N 27°55' W 082°27'0 0.0
2018-May-13 07:00N 27°55' W 082°27'0 0.0
2018-May-13 06:30N 27°55' W 082°27'0 0.0
2018-May-13 06:00N 27°55' W 082°27'0 0.0
2018-May-13 05:30N 27°55' W 082°27'0 0.0
2018-May-13 05:00N 27°55' W 082°27'0 0.0
2018-May-13 04:30N 27°55' W 082°27'0 0.0
2018-May-13 04:00N 27°55' W 082°27'1 2.9
2018-May-13 03:30N 27°57' W 082°27'0 0.0
2018-May-13 03:00N 27°57' W 082°27'0 0.5
2018-May-13 02:30N 27°57' W 082°27'2 3.5
2018-May-13 02:00N 27°55' W 082°27'1 1.5
2018-May-13 01:30N 27°54' W 082°26'1 2.7
2018-May-13 01:00N 27°55' W 082°27'0 0.0
2018-May-13 00:30N 27°55' W 082°27'0 0.0
2018-May-13 00:00N 27°55' W 082°27'1 1.7
2018-May-12 23:31N 27°55' W 082°26'4 8.7
2018-May-12 23:00N 27°50' W 082°27'3 4.5
2018-May-12 22:25N 27°48' W 082°25'0 0.2
2018-May-12 22:00N 27°48' W 082°24'0 0.7
2018-May-12 21:30N 27°48' W 082°25'4 7.9
2018-May-12 21:00N 27°48' W 082°29'5 9.8
2018-May-12 20:30N 27°43' W 082°32'6 0.9
2018-May-12 14:31N 27°38' W 082°34'0 0.0
2018-May-12 14:31N 27°38' W 082°34'0 0.0
2018-May-12 14:01N 27°38' W 082°34'0 0.0
2018-May-12 13:30N 27°38' W 082°34'0 0.0
2018-May-12 13:00N 27°38' W 082°34'0 0.0
2018-May-12 12:29N 27°38' W 082°34'0 0.0
2018-May-12 12:00N 27°38' W 082°34'0 0.0
2018-May-12 11:31N 27°38' W 082°34'0 0.0
2018-May-12 11:00N 27°38' W 082°34'0 0.0
2018-May-12 09:46N 27°38' W 082°34'0 0.0
2018-May-12 09:31N 27°38' W 082°34'0 0.0
2018-May-12 08:59N 27°38' W 082°34'0 0.0
2018-May-12 04:25N 27°38' W 082°34'7 3.1
2018-May-12 02:16N 27°44' W 082°32'310.2
2018-May-12 01:59N 27°47' W 082°31'5 9.9
2018-May-12 01:30N 27°50' W 082°27'5 9.7
2018-May-12 01:00N 27°55' W 082°27'0 0.0
2018-May-12 00:29N 27°55' W 082°27'0 0.0
2018-May-12 00:00N 27°55' W 082°27'0 0.0
2018-May-11 23:30N 27°55' W 082°27'0 0.0
2018-May-11 23:00N 27°55' W 082°27'0 0.0
2018-May-11 22:30N 27°55' W 082°27'0 0.0
2018-May-11 22:00N 27°55' W 082°27'0 0.0
2018-May-11 21:30N 27°55' W 082°27'1 2.3
2018-May-11 21:00N 27°54' W 082°26'1 1.1
2018-May-11 20:30N 27°54' W 082°26'1 1.9
2018-May-11 20:00N 27°54' W 082°26'4 7.8
2018-May-11 19:30N 27°50' W 082°27'4 7.7
2018-May-11 19:00N 27°47' W 082°30'7 7.8
2018-May-11 18:05N 27°41' W 082°34'10 3.7
2018-May-11 15:26N 27°36' W 082°44'9 0.3
2018-May-10 10:43N 27°38' W 082°34'7 2.0
2018-May-10 07:01N 27°45' W 082°32'112.3
2018-May-10 06:57N 27°46' W 082°31'7 9.9
2018-May-10 06:18N 27°48' W 082°25'0 0.2
2018-May-10 05:54N 27°48' W 082°25'0 0.8
2018-May-10 05:30N 27°48' W 082°25'1 1.2
2018-May-10 05:00N 27°48' W 082°25'2 4.3
2018-May-10 04:30N 27°49' W 082°27'2 3.7
2018-May-10 03:56N 27°48' W 082°25'0 0.1
2018-May-10 03:30N 27°48' W 082°25'0 0.9
2018-May-10 03:01N 27°48' W 082°25'4 8.0
2018-May-10 02:30N 27°52' W 082°27'3 5.9
2018-May-10 02:00N 27°55' W 082°27'0 0.3
2018-May-10 01:30N 27°55' W 082°27'2 4.4
2018-May-10 01:00N 27°53' W 082°26'1 1.0
2018-May-10 00:30N 27°53' W 082°26'2 3.9
2018-May-10 00:00N 27°55' W 082°27'0 0.0
2018-May-09 23:30N 27°55' W 082°27'0 0.0
2018-May-09 23:00N 27°55' W 082°27'0 0.0
2018-May-09 22:30N 27°55' W 082°27'0 0.0
2018-May-09 22:00N 27°55' W 082°27'0 0.0
2018-May-09 21:31N 27°55' W 082°27'0 0.0
2018-May-09 21:00N 27°55' W 082°27'0 0.0
2018-May-09 20:30N 27°55' W 082°27'0 0.0
2018-May-09 20:00N 27°55' W 082°27'0 0.0
2018-May-09 19:31N 27°55' W 082°27'0 0.0
2018-May-09 18:59N 27°55' W 082°27'0 0.0
2018-May-09 18:30N 27°55' W 082°27'0 0.0
2018-May-09 18:00N 27°55' W 082°27'0 0.0
2018-May-09 17:29N 27°55' W 082°27'0 0.0
2018-May-09 17:00N 27°55' W 082°27'0 0.0
2018-May-09 16:30N 27°55' W 082°27'0 0.0
2018-May-09 16:00N 27°55' W 082°27'0 0.0
2018-May-09 15:30N 27°55' W 082°27'0 0.0
2018-May-09 15:00N 27°55' W 082°27'0 0.0
2018-May-09 14:30N 27°55' W 082°27'0 0.0
2018-May-09 14:00N 27°55' W 082°27'0 0.0
2018-May-09 13:31N 27°55' W 082°27'1 2.2
2018-May-09 13:00N 27°56' W 082°27'0 0.9
2018-May-09 12:30N 27°57' W 082°27'0 0.0
2018-May-09 12:00N 27°57' W 082°27'2 3.0
2018-May-09 11:30N 27°55' W 082°27'0 0.0
2018-May-09 11:00N 27°55' W 082°27'0 0.0
2018-May-09 10:30N 27°55' W 082°27'0 0.0
2018-May-09 10:00N 27°55' W 082°27'0 0.0
2018-May-09 09:30N 27°55' W 082°27'0 0.0
2018-May-09 08:59N 27°55' W 082°27'0 0.0
2018-May-09 08:30N 27°55' W 082°27'0 0.0
2018-May-09 08:00N 27°55' W 082°27'0 0.0
2018-May-09 07:30N 27°55' W 082°27'0 0.0
2018-May-09 07:00N 27°55' W 082°27'0 0.0
2018-May-09 06:30N 27°55' W 082°27'0 0.0
2018-May-09 06:01N 27°55' W 082°27'0 0.0
2018-May-09 05:30N 27°55' W 082°27'0 0.0
2018-May-09 05:01N 27°55' W 082°27'0 0.0
2018-May-09 04:30N 27°55' W 082°27'0 0.0
2018-May-09 04:00N 27°55' W 082°27'0 0.0
2018-May-09 03:30N 27°55' W 082°27'0 0.0
2018-May-09 03:01N 27°55' W 082°27'0 0.0
2018-May-09 02:30N 27°55' W 082°27'0 0.0
2018-May-09 02:00N 27°55' W 082°27'0 0.0
2018-May-09 01:30N 27°55' W 082°27'0 0.0
2018-May-09 01:00N 27°55' W 082°27'0 0.0
2018-May-09 00:30N 27°55' W 082°27'0 0.0
2018-May-09 00:00N 27°55' W 082°27'0 0.0
2018-May-08 23:30N 27°55' W 082°27'0 0.0
2018-May-08 23:00N 27°55' W 082°27'0 0.0
2018-May-08 22:30N 27°55' W 082°27'0 0.0
2018-May-08 22:00N 27°55' W 082°27'0 0.0
2018-May-08 21:30N 27°55' W 082°27'0 0.0
2018-May-08 20:59N 27°55' W 082°27'0 0.0
2018-May-08 20:30N 27°55' W 082°27'0 0.0
2018-May-08 19:59N 27°55' W 082°27'0 0.0
2018-May-08 19:30N 27°55' W 082°27'0 0.0
2018-May-08 19:00N 27°55' W 082°27'0 0.0
2018-May-08 18:30N 27°55' W 082°27'0 0.0
2018-May-08 18:01N 27°55' W 082°27'0 0.0
2018-May-08 17:30N 27°55' W 082°27'0 0.0
2018-May-08 16:58N 27°55' W 082°27'0 0.0
2018-May-08 16:30N 27°55' W 082°27'0 0.0
2018-May-08 16:01N 27°55' W 082°27'0 0.0
2018-May-08 15:31N 27°55' W 082°27'0 0.0
2018-May-08 15:01N 27°55' W 082°27'0 0.0
2018-May-08 14:30N 27°55' W 082°27'0 0.9
2018-May-08 14:00N 27°55' W 082°27'0 0.0
2018-May-08 13:30N 27°55' W 082°27'1 1.6
2018-May-08 13:00N 27°54' W 082°26'0 0.7
2018-May-08 12:30N 27°55' W 082°26'1 1.8
2018-May-08 12:00N 27°55' W 082°27'0 0.0
2018-May-08 11:30N 27°55' W 082°27'0 0.0
2018-May-08 11:00N 27°55' W 082°27'0 0.0
2018-May-08 10:30N 27°55' W 082°27'0 0.0
2018-May-08 10:00N 27°55' W 082°27'0 0.0
2018-May-08 09:30N 27°55' W 082°27'0 0.0
2018-May-08 09:01N 27°55' W 082°27'0 0.0
2018-May-08 08:30N 27°55' W 082°27'0 0.0
2018-May-08 08:01N 27°55' W 082°27'0 0.1
2018-May-08 07:30N 27°55' W 082°27'0 0.1
2018-May-08 06:59N 27°55' W 082°27'0 0.0
2018-May-08 06:30N 27°55' W 082°27'0 0.0
2018-May-08 05:59N 27°55' W 082°27'0 0.0
2018-May-08 05:30N 27°55' W 082°27'0 0.0
2018-May-08 05:00N 27°55' W 082°27'0 0.0
2018-May-08 04:31N 27°55' W 082°27'0 0.0
2018-May-08 03:59N 27°55' W 082°27'0 0.0
2018-May-08 03:30N 27°55' W 082°27'0 0.0
2018-May-08 03:00N 27°55' W 082°27'0 0.0
2018-May-08 02:30N 27°55' W 082°27'0 0.0
2018-May-08 02:00N 27°55' W 082°27'0 0.0
2018-May-08 01:30N 27°55' W 082°27'4 8.0
2018-May-08 01:00N 27°51' W 082°27'3 5.6
2018-May-08 00:24N 27°48' W 082°25'0 0.3
2018-May-08 00:00N 27°48' W 082°24'1 2.0
2018-May-07 23:30N 27°49' W 082°26'5 9.3
2018-May-07 23:00N 27°53' W 082°26'2 4.6
2018-May-07 22:30N 27°55' W 082°27'0 0.0
2018-May-07 22:00N 27°55' W 082°27'0 0.0
2018-May-07 21:30N 27°55' W 082°27'0 0.0
2018-May-07 20:59N 27°55' W 082°27'0 0.0
2018-May-07 20:30N 27°55' W 082°27'0 0.0
2018-May-07 20:00N 27°55' W 082°27'0 0.0
2018-May-07 19:30N 27°55' W 082°27'0 0.0
2018-May-07 19:00N 27°55' W 082°27'1 2.8
2018-May-07 18:30N 27°57' W 082°27'0 0.1
2018-May-07 18:00N 27°57' W 082°27'1 2.3
2018-May-07 17:30N 27°56' W 082°27'2 3.3
2018-May-07 17:00N 27°54' W 082°26'0 1.0
2018-May-07 16:30N 27°55' W 082°26'0 0.0
2018-May-07 16:00N 27°55' W 082°26'0 0.0
2018-May-07 15:30N 27°55' W 082°26'4 7.9
2018-May-07 15:00N 27°51' W 082°27'4 7.4
2018-May-07 14:29N 27°48' W 082°30'3 7.0
2018-May-07 14:00N 27°45' W 082°32'0 0.1
2018-May-07 10:51N 27°44' W 082°32'4 8.1
2018-May-07 10:22N 27°48' W 082°34'3 9.3
2018-May-07 10:00N 27°51' W 082°34'1 2.1
2018-May-07 09:30N 27°52' W 082°33'0 0.0
2018-May-07 09:00N 27°52' W 082°33'0 0.0
2018-May-07 08:30N 27°52' W 082°33'0 0.0
2018-May-07 08:00N 27°52' W 082°33'0 0.0
2018-May-07 07:30N 27°52' W 082°33'0 0.0
2018-May-07 07:01N 27°52' W 082°33'0 0.0
2018-May-07 06:30N 27°52' W 082°33'0 0.0
2018-May-07 06:01N 27°52' W 082°33'0 0.0
2018-May-07 05:30N 27°52' W 082°33'0 0.0
2018-May-07 05:00N 27°52' W 082°33'0 0.0
2018-May-07 04:30N 27°52' W 082°33'0 0.0
2018-May-07 04:01N 27°52' W 082°33'0 0.0
2018-May-07 03:31N 27°52' W 082°33'0 0.0
2018-May-07 03:01N 27°52' W 082°33'0 0.0
2018-May-07 02:30N 27°52' W 082°33'0 0.0
2018-May-07 01:59N 27°52' W 082°33'0 0.0
2018-May-07 01:31N 27°52' W 082°33'0 0.0
2018-May-07 00:59N 27°52' W 082°33'0 0.0
2018-May-07 00:28N 27°52' W 082°33'0 0.0
2018-May-07 00:00N 27°52' W 082°33'0 0.0
2018-May-06 23:30N 27°52' W 082°33'0 0.0
2018-May-06 23:00N 27°52' W 082°33'0 0.0
2018-May-06 22:31N 27°52' W 082°33'0 0.0
2018-May-06 22:00N 27°52' W 082°33'0 0.0
2018-May-06 21:30N 27°52' W 082°33'0 0.0
2018-May-06 21:00N 27°52' W 082°33'0 0.0
2018-May-06 20:30N 27°52' W 082°33'0 0.0
2018-May-06 20:00N 27°52' W 082°33'0 0.0
2018-May-06 19:30N 27°52' W 082°33'0 0.0
2018-May-06 19:00N 27°52' W 082°33'0 0.0
2018-May-06 18:31N 27°52' W 082°33'0 0.0
2018-May-06 18:01N 27°52' W 082°33'0 0.0
2018-May-06 17:30N 27°52' W 082°33'0 0.0
2018-May-06 17:00N 27°52' W 082°33'0 0.0
2018-May-06 16:30N 27°52' W 082°33'0 0.0
2018-May-06 16:01N 27°52' W 082°33'0 0.0
2018-May-06 15:30N 27°52' W 082°33'0 0.0
2018-May-06 15:00N 27°52' W 082°33'0 0.0
2018-May-06 14:29N 27°52' W 082°33'0 0.4
2018-May-06 14:00N 27°52' W 082°33'0 0.3
2018-May-06 13:30N 27°52' W 082°33'0 0.0
2018-May-06 13:00N 27°52' W 082°33'0 0.0
2018-May-06 12:30N 27°52' W 082°33'0 0.0
2018-May-06 12:01N 27°52' W 082°33'0 0.0
2018-May-06 11:30N 27°52' W 082°33'0 0.0
2018-May-06 11:00N 27°52' W 082°33'5 6.0
2018-May-06 10:09N 27°48' W 082°29'210.9
2018-May-06 10:00N 27°49' W 082°27'2 4.6
2018-May-06 09:30N 27°48' W 082°25'0 0.1
2018-May-06 08:59N 27°48' W 082°25'4 7.3
2018-May-06 08:30N 27°48' W 082°29'510.2
2018-May-06 08:00N 27°48' W 082°34'4 7.4
2018-May-06 07:30N 27°52' W 082°33'0 0.0
2018-May-06 07:00N 27°52' W 082°33'0 0.0
2018-May-06 06:30N 27°52' W 082°33'0 0.0
2018-May-06 06:00N 27°52' W 082°33'0 0.0
2018-May-06 05:30N 27°52' W 082°33'0 0.0
2018-May-06 05:00N 27°52' W 082°33'0 0.0
2018-May-06 04:30N 27°52' W 082°33'0 0.0
2018-May-06 04:00N 27°52' W 082°33'0 0.0
2018-May-06 03:30N 27°52' W 082°33'0 0.0
2018-May-06 03:00N 27°52' W 082°33'0 0.0
2018-May-06 02:30N 27°52' W 082°33'0 0.0
2018-May-06 02:00N 27°52' W 082°33'0 0.0
2018-May-06 01:30N 27°52' W 082°33'0 0.0
2018-May-06 01:00N 27°52' W 082°33'0 0.0
2018-May-06 00:30N 27°52' W 082°33'0 0.0
2018-May-06 00:00N 27°52' W 082°33'0 0.0
2018-May-05 23:30N 27°52' W 082°33'0 0.0
2018-May-05 23:00N 27°52' W 082°33'0 0.5
2018-May-05 22:30N 27°52' W 082°33'1 1.9
2018-May-05 21:54N 27°51' W 082°34'2 5.0
2018-May-05 21:29N 27°49' W 082°34'4 9.3
2018-May-05 21:00N 27°48' W 082°30'510.5
2018-May-05 20:30N 27°52' W 082°27'3 5.4
2018-May-05 20:00N 27°55' W 082°27'0 0.1
2018-May-05 19:30N 27°55' W 082°27'1 1.0
2018-May-05 19:01N 27°55' W 082°27'0 0.0
2018-May-05 18:30N 27°55' W 082°27'0 0.0
2018-May-05 18:00N 27°55' W 082°27'0 0.0
2018-May-05 17:30N 27°55' W 082°27'0 0.0
2018-May-05 17:00N 27°55' W 082°27'0 0.0
2018-May-05 16:30N 27°55' W 082°27'0 0.0
2018-May-05 16:00N 27°55' W 082°27'0 0.0
2018-May-05 15:30N 27°55' W 082°27'0 0.0
2018-May-05 14:59N 27°55' W 082°27'0 0.0
2018-May-05 14:30N 27°55' W 082°27'  
Track history (hours):
 
Tides and Currents Weather Stations Pressure Air Temp Water Temp Dewpoint Dewpoint Depression Visibility Wind Speed Wind Dir Waves Ship Positions

Atlas

Owner: Seabulk Towing, Inc., Fort Lauderdale, FL. More information available from US FCC via Universal Licensing System and Coast Guard Vessel Documentation Center.

Last reported at 2018-May-15 14:20 UTC. Time now 2018-Aug-14 23:41 UTC.
Position N 27°55' W 082°27'.
Warning: this ship's position is months out of date.

Length 30 m; draft 6 m.

Type: Tug. MMSI: 367560990.

Date/timePositionNaut miles runAvg speedWind from/ knotsBaromVisibWave heightAir tempDewpointWater temp
2018-May-15 14:20N 27°55' W 082°27'0 0.0
2018-May-15 14:00N 27°55' W 082°27'0 0.0
2018-May-15 13:30N 27°55' W 082°27'0 0.0
2018-May-15 13:00N 27°55' W 082°27'0 0.0
2018-May-15 12:30N 27°55' W 082°27'0 0.0
2018-May-15 12:00N 27°55' W 082°27'0 0.0
2018-May-15 11:30N 27°55' W 082°27'0 0.0
2018-May-15 11:00N 27°55' W 082°27'0 0.0
2018-May-15 10:31N 27°55' W 082°27'0 0.0
2018-May-15 10:00N 27°55' W 082°27'0 0.0
2018-May-15 09:30N 27°55' W 082°27'0 0.0
2018-May-15 09:00N 27°55' W 082°27'0 0.0
2018-May-15 08:31N 27°55' W 082°27'0 0.0
2018-May-15 08:01N 27°55' W 082°27'0 0.0
2018-May-15 07:30N 27°55' W 082°27'0 0.0
2018-May-15 07:00N 27°55' W 082°27'0 0.0
2018-May-15 06:30N 27°55' W 082°27'0 0.0
2018-May-15 06:00N 27°55' W 082°27'0 0.0
2018-May-15 05:30N 27°55' W 082°27'0 0.0
2018-May-15 05:00N 27°55' W 082°27'0 0.0
2018-May-15 04:30N 27°55' W 082°27'0 0.0
2018-May-15 04:00N 27°55' W 082°27'0 0.0
2018-May-15 03:30N 27°55' W 082°27'0 0.0
2018-May-15 03:00N 27°55' W 082°27'0 0.0
2018-May-15 02:30N 27°55' W 082°27'0 0.0
2018-May-15 02:00N 27°55' W 082°27'0 0.0
2018-May-15 01:30N 27°55' W 082°27'0 0.0
2018-May-15 01:00N 27°55' W 082°27'0 0.0
2018-May-15 00:30N 27°55' W 082°27'0 0.0
2018-May-15 00:00N 27°55' W 082°27'0 0.0
2018-May-14 23:31N 27°55' W 082°27'0 0.0
2018-May-14 23:00N 27°55' W 082°27'0 0.0
2018-May-14 22:30N 27°55' W 082°27'0 0.0
2018-May-14 22:00N 27°55' W 082°27'0 0.0
2018-May-14 21:30N 27°55' W 082°27'0 0.0
2018-May-14 21:00N 27°55' W 082°27'0 0.0
2018-May-14 20:28N 27°55' W 082°27'0 0.0
2018-May-14 20:00N 27°55' W 082°27'0 0.0
2018-May-14 19:30N 27°55' W 082°27'0 0.0
2018-May-14 19:00N 27°55' W 082°27'0 0.0
2018-May-14 18:30N 27°55' W 082°27'0 0.0
2018-May-14 18:00N 27°55' W 082°27'0 0.0
2018-May-14 17:31N 27°55' W 082°27'0 0.0
2018-May-14 16:59N 27°55' W 082°27'0 0.0
2018-May-14 16:31N 27°55' W 082°27'0 0.0
2018-May-14 15:59N 27°55' W 082°27'0 0.0
2018-May-14 15:31N 27°55' W 082°27'0 0.0
2018-May-14 15:00N 27°55' W 082°27'0 0.0
2018-May-14 14:29N 27°55' W 082°27'1 3.1
2018-May-14 14:00N 27°54' W 082°26'3 6.3
2018-May-14 13:30N 27°51' W 082°25'1 2.8
2018-May-14 13:00N 27°51' W 082°23'0 0.3
2018-May-14 12:19N 27°51' W 082°24'0 1.3
2018-May-14 12:00N 27°51' W 082°24'2 3.3
2018-May-14 11:30N 27°51' W 082°26'2 4.5
2018-May-14 11:01N 27°49' W 082°27'2 0.3
2018-May-14 03:03N 27°48' W 082°24'0 1.4
2018-May-14 03:00N 27°48' W 082°24'0 0.2
2018-May-14 02:30N 27°48' W 082°25'1 3.0
2018-May-14 02:00N 27°49' W 082°26'3 6.7
2018-May-14 01:31N 27°48' W 082°30'510.1
2018-May-14 00:59N 27°43' W 082°32'4 0.4
2018-May-13 15:26N 27°47' W 082°31'410.0
2018-May-13 15:00N 27°49' W 082°27'5 9.9
2018-May-13 14:30N 27°54' W 082°26'2 3.2
2018-May-13 14:00N 27°55' W 082°27'0 0.0
2018-May-13 13:30N 27°55' W 082°27'0 0.0
2018-May-13 13:00N 27°55' W 082°27'0 0.0
2018-May-13 12:30N 27°55' W 082°27'0 0.0
2018-May-13 12:00N 27°55' W 082°27'0 0.0
2018-May-13 11:31N 27°55' W 082°27'0 0.0
2018-May-13 11:01N 27°55' W 082°27'0 0.0
2018-May-13 10:29N 27°55' W 082°27'0 0.0
2018-May-13 10:00N 27°55' W 082°27'0 0.0
2018-May-13 09:30N 27°55' W 082°27'0 0.0
2018-May-13 09:00N 27°55' W 082°27'0 0.0
2018-May-13 08:30N 27°55' W 082°27'0 0.0
2018-May-13 08:00N 27°55' W 082°27'0 0.0
2018-May-13 07:30N 27°55' W 082°27'0 0.0
2018-May-13 07:00N 27°55' W 082°27'0 0.0
2018-May-13 06:30N 27°55' W 082°27'0 0.0
2018-May-13 06:00N 27°55' W 082°27'0 0.0
2018-May-13 05:30N 27°55' W 082°27'0 0.0
2018-May-13 05:00N 27°55' W 082°27'0 0.0
2018-May-13 04:30N 27°55' W 082°27'0 0.0
2018-May-13 04:00N 27°55' W 082°27'1 2.9
2018-May-13 03:30N 27°57' W 082°27'0 0.0
2018-May-13 03:00N 27°57' W 082°27'0 0.5
2018-May-13 02:30N 27°57' W 082°27'2 3.5
2018-May-13 02:00N 27°55' W 082°27'1 1.5
2018-May-13 01:30N 27°54' W 082°26'1 2.7
2018-May-13 01:00N 27°55' W 082°27'0 0.0
2018-May-13 00:30N 27°55' W 082°27'0 0.0
2018-May-13 00:00N 27°55' W 082°27'1 1.7
2018-May-12 23:31N 27°55' W 082°26'4 8.7
2018-May-12 23:00N 27°50' W 082°27'3 4.5
2018-May-12 22:25N 27°48' W 082°25'0 0.2
2018-May-12 22:00N 27°48' W 082°24'0 0.7
2018-May-12 21:30N 27°48' W 082°25'4 7.9
2018-May-12 21:00N 27°48' W 082°29'5 9.8
2018-May-12 20:30N 27°43' W 082°32'6 0.9
2018-May-12 14:31N 27°38' W 082°34'0 0.0
2018-May-12 14:31N 27°38' W 082°34'0 0.0
2018-May-12 14:01N 27°38' W 082°34'0 0.0
2018-May-12 13:30N 27°38' W 082°34'0 0.0
2018-May-12 13:00N 27°38' W 082°34'0 0.0
2018-May-12 12:29N 27°38' W 082°34'0 0.0
2018-May-12 12:00N 27°38' W 082°34'0 0.0
2018-May-12 11:31N 27°38' W 082°34'0 0.0
2018-May-12 11:00N 27°38' W 082°34'0 0.0
2018-May-12 09:46N 27°38' W 082°34'0 0.0
2018-May-12 09:31N 27°38' W 082°34'0 0.0
2018-May-12 08:59N 27°38' W 082°34'0 0.0
2018-May-12 04:25N 27°38' W 082°34'7 3.1
2018-May-12 02:16N 27°44' W 082°32'310.2
2018-May-12 01:59N 27°47' W 082°31'5 9.9
2018-May-12 01:30N 27°50' W 082°27'5 9.7
2018-May-12 01:00N 27°55' W 082°27'0 0.0
2018-May-12 00:29N 27°55' W 082°27'0 0.0
2018-May-12 00:00N 27°55' W 082°27'0 0.0
2018-May-11 23:30N 27°55' W 082°27'0 0.0
2018-May-11 23:00N 27°55' W 082°27'0 0.0
2018-May-11 22:30N 27°55' W 082°27'0 0.0
2018-May-11 22:00N 27°55' W 082°27'0 0.0
2018-May-11 21:30N 27°55' W 082°27'1 2.3
2018-May-11 21:00N 27°54' W 082°26'1 1.1
2018-May-11 20:30N 27°54' W 082°26'1 1.9
2018-May-11 20:00N 27°54' W 082°26'4 7.8
2018-May-11 19:30N 27°50' W 082°27'4 7.7
2018-May-11 19:00N 27°47' W 082°30'7 7.8
2018-May-11 18:05N 27°41' W 082°34'10 3.7
2018-May-11 15:26N 27°36' W 082°44'9 0.3
2018-May-10 10:43N 27°38' W 082°34'7 2.0
2018-May-10 07:01N 27°45' W 082°32'112.3
2018-May-10 06:57N 27°46' W 082°31'7 9.9
2018-May-10 06:18N 27°48' W 082°25'0 0.2
2018-May-10 05:54N 27°48' W 082°25'0 0.8
2018-May-10 05:30N 27°48' W 082°25'1 1.2
2018-May-10 05:00N 27°48' W 082°25'2 4.3
2018-May-10 04:30N 27°49' W 082°27'2 3.7
2018-May-10 03:56N 27°48' W 082°25'0 0.1
2018-May-10 03:30N 27°48' W 082°25'0 0.9
2018-May-10 03:01N 27°48' W 082°25'4 8.0
2018-May-10 02:30N 27°52' W 082°27'3 5.9
2018-May-10 02:00N 27°55' W 082°27'0 0.3
2018-May-10 01:30N 27°55' W 082°27'2 4.4
2018-May-10 01:00N 27°53' W 082°26'1 1.0
2018-May-10 00:30N 27°53' W 082°26'2 3.9
2018-May-10 00:00N 27°55' W 082°27'0 0.0
2018-May-09 23:30N 27°55' W 082°27'0 0.0
2018-May-09 23:00N 27°55' W 082°27'0 0.0
2018-May-09 22:30N 27°55' W 082°27'0 0.0
2018-May-09 22:00N 27°55' W 082°27'0 0.0
2018-May-09 21:31N 27°55' W 082°27'0 0.0
2018-May-09 21:00N 27°55' W 082°27'0 0.0
2018-May-09 20:30N 27°55' W 082°27'0 0.0
2018-May-09 20:00N 27°55' W 082°27'0 0.0
2018-May-09 19:31N 27°55' W 082°27'0 0.0
2018-May-09 18:59N 27°55' W 082°27'0 0.0
2018-May-09 18:30N 27°55' W 082°27'0 0.0
2018-May-09 18:00N 27°55' W 082°27'0 0.0
2018-May-09 17:29N 27°55' W 082°27'0 0.0
2018-May-09 17:00N 27°55' W 082°27'0 0.0
2018-May-09 16:30N 27°55' W 082°27'0 0.0
2018-May-09 16:00N 27°55' W 082°27'0 0.0
2018-May-09 15:30N 27°55' W 082°27'0 0.0
2018-May-09 15:00N 27°55' W 082°27'0 0.0
2018-May-09 14:30N 27°55' W 082°27'0 0.0
2018-May-09 14:00N 27°55' W 082°27'0 0.0
2018-May-09 13:31N 27°55' W 082°27'1 2.2
2018-May-09 13:00N 27°56' W 082°27'0 0.9
2018-May-09 12:30N 27°57' W 082°27'0 0.0
2018-May-09 12:00N 27°57' W 082°27'2 3.0
2018-May-09 11:30N 27°55' W 082°27'0 0.0
2018-May-09 11:00N 27°55' W 082°27'0 0.0
2018-May-09 10:30N 27°55' W 082°27'0 0.0
2018-May-09 10:00N 27°55' W 082°27'0 0.0
2018-May-09 09:30N 27°55' W 082°27'0 0.0
2018-May-09 08:59N 27°55' W 082°27'0 0.0
2018-May-09 08:30N 27°55' W 082°27'0 0.0
2018-May-09 08:00N 27°55' W 082°27'0 0.0
2018-May-09 07:30N 27°55' W 082°27'0 0.0
2018-May-09 07:00N 27°55' W 082°27'0 0.0
2018-May-09 06:30N 27°55' W 082°27'0 0.0
2018-May-09 06:01N 27°55' W 082°27'0 0.0
2018-May-09 05:30N 27°55' W 082°27'0 0.0
2018-May-09 05:01N 27°55' W 082°27'0 0.0
2018-May-09 04:30N 27°55' W 082°27'0 0.0
2018-May-09 04:00N 27°55' W 082°27'0 0.0
2018-May-09 03:30N 27°55' W 082°27'0 0.0
2018-May-09 03:01N 27°55' W 082°27'0 0.0
2018-May-09 02:30N 27°55' W 082°27'0 0.0
2018-May-09 02:00N 27°55' W 082°27'0 0.0
2018-May-09 01:30N 27°55' W 082°27'0 0.0
2018-May-09 01:00N 27°55' W 082°27'0 0.0
2018-May-09 00:30N 27°55' W 082°27'0 0.0
2018-May-09 00:00N 27°55' W 082°27'0 0.0
2018-May-08 23:30N 27°55' W 082°27'0 0.0
2018-May-08 23:00N 27°55' W 082°27'0 0.0
2018-May-08 22:30N 27°55' W 082°27'0 0.0
2018-May-08 22:00N 27°55' W 082°27'0 0.0
2018-May-08 21:30N 27°55' W 082°27'0 0.0
2018-May-08 20:59N 27°55' W 082°27'0 0.0
2018-May-08 20:30N 27°55' W 082°27'0 0.0
2018-May-08 19:59N 27°55' W 082°27'0 0.0
2018-May-08 19:30N 27°55' W 082°27'0 0.0
2018-May-08 19:00N 27°55' W 082°27'0 0.0
2018-May-08 18:30N 27°55' W 082°27'0 0.0
2018-May-08 18:01N 27°55' W 082°27'0 0.0
2018-May-08 17:30N 27°55' W 082°27'0 0.0
2018-May-08 16:58N 27°55' W 082°27'0 0.0
2018-May-08 16:30N 27°55' W 082°27'0 0.0
2018-May-08 16:01N 27°55' W 082°27'0 0.0
2018-May-08 15:31N 27°55' W 082°27'0 0.0
2018-May-08 15:01N 27°55' W 082°27'0 0.0
2018-May-08 14:30N 27°55' W 082°27'0 0.9
2018-May-08 14:00N 27°55' W 082°27'0 0.0
2018-May-08 13:30N 27°55' W 082°27'1 1.6
2018-May-08 13:00N 27°54' W 082°26'0 0.7
2018-May-08 12:30N 27°55' W 082°26'1 1.8
2018-May-08 12:00N 27°55' W 082°27'0 0.0
2018-May-08 11:30N 27°55' W 082°27'0 0.0
2018-May-08 11:00N 27°55' W 082°27'0 0.0
2018-May-08 10:30N 27°55' W 082°27'0 0.0
2018-May-08 10:00N 27°55' W 082°27'0 0.0
2018-May-08 09:30N 27°55' W 082°27'0 0.0
2018-May-08 09:01N 27°55' W 082°27'0 0.0
2018-May-08 08:30N 27°55' W 082°27'0 0.0
2018-May-08 08:01N 27°55' W 082°27'0 0.1
2018-May-08 07:30N 27°55' W 082°27'0 0.1
2018-May-08 06:59N 27°55' W 082°27'0 0.0
2018-May-08 06:30N 27°55' W 082°27'0 0.0
2018-May-08 05:59N 27°55' W 082°27'0 0.0
2018-May-08 05:30N 27°55' W 082°27'0 0.0
2018-May-08 05:00N 27°55' W 082°27'0 0.0
2018-May-08 04:31N 27°55' W 082°27'0 0.0
2018-May-08 03:59N 27°55' W 082°27'0 0.0
2018-May-08 03:30N 27°55' W 082°27'0 0.0
2018-May-08 03:00N 27°55' W 082°27'0 0.0
2018-May-08 02:30N 27°55' W 082°27'0 0.0
2018-May-08 02:00N 27°55' W 082°27'0 0.0
2018-May-08 01:30N 27°55' W 082°27'4 8.0
2018-May-08 01:00N 27°51' W 082°27'3 5.6
2018-May-08 00:24N 27°48' W 082°25'0 0.3
2018-May-08 00:00N 27°48' W 082°24'1 2.0
2018-May-07 23:30N 27°49' W 082°26'5 9.3
2018-May-07 23:00N 27°53' W 082°26'2 4.6
2018-May-07 22:30N 27°55' W 082°27'0 0.0
2018-May-07 22:00N 27°55' W 082°27'0 0.0
2018-May-07 21:30N 27°55' W 082°27'0 0.0
2018-May-07 20:59N 27°55' W 082°27'0 0.0
2018-May-07 20:30N 27°55' W 082°27'0 0.0
2018-May-07 20:00N 27°55' W 082°27'0 0.0
2018-May-07 19:30N 27°55' W 082°27'0 0.0
2018-May-07 19:00N 27°55' W 082°27'1 2.8
2018-May-07 18:30N 27°57' W 082°27'0 0.1
2018-May-07 18:00N 27°57' W 082°27'1 2.3
2018-May-07 17:30N 27°56' W 082°27'2 3.3
2018-May-07 17:00N 27°54' W 082°26'0 1.0
2018-May-07 16:30N 27°55' W 082°26'0 0.0
2018-May-07 16:00N 27°55' W 082°26'0 0.0
2018-May-07 15:30N 27°55' W 082°26'4 7.9
2018-May-07 15:00N 27°51' W 082°27'4 7.4
2018-May-07 14:29N 27°48' W 082°30'3 7.0
2018-May-07 14:00N 27°45' W 082°32'0 0.1
2018-May-07 10:51N 27°44' W 082°32'4 8.1
2018-May-07 10:22N 27°48' W 082°34'3 9.3
2018-May-07 10:00N 27°51' W 082°34'1 2.1
2018-May-07 09:30N 27°52' W 082°33'0 0.0
2018-May-07 09:00N 27°52' W 082°33'0 0.0
2018-May-07 08:30N 27°52' W 082°33'0 0.0
2018-May-07 08:00N 27°52' W 082°33'0 0.0
2018-May-07 07:30N 27°52' W 082°33'0 0.0
2018-May-07 07:01N 27°52' W 082°33'0 0.0
2018-May-07 06:30N 27°52' W 082°33'0 0.0
2018-May-07 06:01N 27°52' W 082°33'0 0.0
2018-May-07 05:30N 27°52' W 082°33'0 0.0
2018-May-07 05:00N 27°52' W 082°33'0 0.0
2018-May-07 04:30N 27°52' W 082°33'0 0.0
2018-May-07 04:01N 27°52' W 082°33'0 0.0
2018-May-07 03:31N 27°52' W 082°33'0 0.0
2018-May-07 03:01N 27°52' W 082°33'0 0.0
2018-May-07 02:30N 27°52' W 082°33'0 0.0
2018-May-07 01:59N 27°52' W 082°33'0 0.0
2018-May-07 01:31N 27°52' W 082°33'0 0.0
2018-May-07 00:59N 27°52' W 082°33'0 0.0
2018-May-07 00:28N 27°52' W 082°33'0 0.0
2018-May-07 00:00N 27°52' W 082°33'0 0.0
2018-May-06 23:30N 27°52' W 082°33'0 0.0
2018-May-06 23:00N 27°52' W 082°33'0 0.0
2018-May-06 22:31N 27°52' W 082°33'0 0.0
2018-May-06 22:00N 27°52' W 082°33'0 0.0
2018-May-06 21:30N 27°52' W 082°33'0 0.0
2018-May-06 21:00N 27°52' W 082°33'0 0.0
2018-May-06 20:30N 27°52' W 082°33'0 0.0
2018-May-06 20:00N 27°52' W 082°33'0 0.0
2018-May-06 19:30N 27°52' W 082°33'0 0.0
2018-May-06 19:00N 27°52' W 082°33'0 0.0
2018-May-06 18:31N 27°52' W 082°33'0 0.0
2018-May-06 18:01N 27°52' W 082°33'0 0.0
2018-May-06 17:30N 27°52' W 082°33'0 0.0
2018-May-06 17:00N 27°52' W 082°33'0 0.0
2018-May-06 16:30N 27°52' W 082°33'0 0.0
2018-May-06 16:01N 27°52' W 082°33'0 0.0
2018-May-06 15:30N 27°52' W 082°33'0 0.0
2018-May-06 15:00N 27°52' W 082°33'0 0.0
2018-May-06 14:29N 27°52' W 082°33'0 0.4
2018-May-06 14:00N 27°52' W 082°33'0 0.3
2018-May-06 13:30N 27°52' W 082°33'0 0.0
2018-May-06 13:00N 27°52' W 082°33'0 0.0
2018-May-06 12:30N 27°52' W 082°33'0 0.0
2018-May-06 12:01N 27°52' W 082°33'0 0.0
2018-May-06 11:30N 27°52' W 082°33'0 0.0
2018-May-06 11:00N 27°52' W 082°33'5 6.0
2018-May-06 10:09N 27°48' W 082°29'210.9
2018-May-06 10:00N 27°49' W 082°27'2 4.6
2018-May-06 09:30N 27°48' W 082°25'0 0.1
2018-May-06 08:59N 27°48' W 082°25'4 7.3
2018-May-06 08:30N 27°48' W 082°29'510.2
2018-May-06 08:00N 27°48' W 082°34'4 7.4
2018-May-06 07:30N 27°52' W 082°33'0 0.0
2018-May-06 07:00N 27°52' W 082°33'0 0.0
2018-May-06 06:30N 27°52' W 082°33'0 0.0
2018-May-06 06:00N 27°52' W 082°33'0 0.0
2018-May-06 05:30N 27°52' W 082°33'0 0.0
2018-May-06 05:00N 27°52' W 082°33'0 0.0
2018-May-06 04:30N 27°52' W 082°33'0 0.0
2018-May-06 04:00N 27°52' W 082°33'0 0.0
2018-May-06 03:30N 27°52' W 082°33'0 0.0
2018-May-06 03:00N 27°52' W 082°33'0 0.0
2018-May-06 02:30N 27°52' W 082°33'0 0.0
2018-May-06 02:00N 27°52' W 082°33'0 0.0
2018-May-06 01:30N 27°52' W 082°33'0 0.0
2018-May-06 01:00N 27°52' W 082°33'0 0.0
2018-May-06 00:30N 27°52' W 082°33'0 0.0
2018-May-06 00:00N 27°52' W 082°33'0 0.0
2018-May-05 23:30N 27°52' W 082°33'0 0.0
2018-May-05 23:00N 27°52' W 082°33'0 0.5
2018-May-05 22:30N 27°52' W 082°33'1 1.9
2018-May-05 21:54N 27°51' W 082°34'2 5.0
2018-May-05 21:29N 27°49' W 082°34'4 9.3
2018-May-05 21:00N 27°48' W 082°30'510.5
2018-May-05 20:30N 27°52' W 082°27'3 5.4
2018-May-05 20:00N 27°55' W 082°27'0 0.1
2018-May-05 19:30N 27°55' W 082°27'1 1.0
2018-May-05 19:01N 27°55' W 082°27'0 0.0
2018-May-05 18:30N 27°55' W 082°27'0 0.0
2018-May-05 18:00N 27°55' W 082°27'0 0.0
2018-May-05 17:30N 27°55' W 082°27'0 0.0
2018-May-05 17:00N 27°55' W 082°27'0 0.0
2018-May-05 16:30N 27°55' W 082°27'0 0.0
2018-May-05 16:00N 27°55' W 082°27'0 0.0
2018-May-05 15:30N 27°55' W 082°27'0 0.0
2018-May-05 14:59N 27°55' W 082°27'0 0.0
2018-May-05 14:30N 27°55' W 082°27'  

Dump ship's entire track history